sensor_id;sensor_type;location;lat;lon;timestamp;P1;durP1;ratioP1;P2;durP2;ratioP2
17365;SDS011;8800;50.118;9.900;2023-04-06T00:01:45;13.20;;;7.10;;
17365;SDS011;8800;50.118;9.900;2023-04-06T00:04:12;16.20;;;6.47;;
17365;SDS011;8800;50.118;9.900;2023-04-06T00:06:38;13.40;;;6.32;;
17365;SDS011;8800;50.118;9.900;2023-04-06T00:09:05;13.40;;;6.10;;
17365;SDS011;8800;50.118;9.900;2023-04-06T00:11:31;12.85;;;7.32;;
17365;SDS011;8800;50.118;9.900;2023-04-06T00:13:58;16.38;;;6.72;;
17365;SDS011;8800;50.118;9.900;2023-04-06T00:16:26;14.88;;;6.35;;
17365;SDS011;8800;50.118;9.900;2023-04-06T00:18:53;10.77;;;5.93;;
17365;SDS011;8800;50.118;9.900;2023-04-06T00:21:19;11.23;;;5.93;;
17365;SDS011;8800;50.118;9.900;2023-04-06T00:23:46;12.65;;;6.22;;
17365;SDS011;8800;50.118;9.900;2023-04-06T00:26:12;10.63;;;5.65;;
17365;SDS011;8800;50.118;9.900;2023-04-06T00:28:38;13.25;;;5.88;;
17365;SDS011;8800;50.118;9.900;2023-04-06T00:31:05;11.48;;;6.28;;
17365;SDS011;8800;50.118;9.900;2023-04-06T00:33:33;13.43;;;6.18;;
17365;SDS011;8800;50.118;9.900;2023-04-06T00:35:59;13.98;;;5.97;;
17365;SDS011;8800;50.118;9.900;2023-04-06T00:38:26;11.45;;;5.90;;
17365;SDS011;8800;50.118;9.900;2023-04-06T00:40:52;11.05;;;6.30;;
17365;SDS011;8800;50.118;9.900;2023-04-06T00:43:18;14.02;;;6.30;;
17365;SDS011;8800;50.118;9.900;2023-04-06T00:45:45;13.27;;;6.18;;
17365;SDS011;8800;50.118;9.900;2023-04-06T00:48:11;13.20;;;6.28;;
17365;SDS011;8800;50.118;9.900;2023-04-06T00:50:39;12.82;;;5.93;;
17365;SDS011;8800;50.118;9.900;2023-04-06T00:53:06;13.10;;;6.72;;
17365;SDS011;8800;50.118;9.900;2023-04-06T00:55:32;11.80;;;5.95;;
17365;SDS011;8800;50.118;9.900;2023-04-06T00:58:01;11.40;;;6.25;;
17365;SDS011;8800;50.118;9.900;2023-04-06T01:00:27;11.48;;;6.28;;
17365;SDS011;8800;50.118;9.900;2023-04-06T01:02:54;10.65;;;5.97;;
17365;SDS011;8800;50.118;9.900;2023-04-06T01:05:20;12.65;;;6.20;;
17365;SDS011;8800;50.118;9.900;2023-04-06T01:07:48;11.23;;;5.65;;
17365;SDS011;8800;50.118;9.900;2023-04-06T01:10:22;9.77;;;5.72;;
17365;SDS011;8800;50.118;9.900;2023-04-06T01:12:48;11.98;;;5.93;;
17365;SDS011;8800;50.118;9.900;2023-04-06T01:15:15;13.65;;;5.82;;
17365;SDS011;8800;50.118;9.900;2023-04-06T01:17:41;13.35;;;6.20;;
17365;SDS011;8800;50.118;9.900;2023-04-06T01:20:08;11.75;;;6.10;;
17365;SDS011;8800;50.118;9.900;2023-04-06T01:22:36;9.45;;;5.45;;
17365;SDS011;8800;50.118;9.900;2023-04-06T01:25:02;12.85;;;5.88;;
17365;SDS011;8800;50.118;9.900;2023-04-06T01:27:29;10.38;;;6.00;;
17365;SDS011;8800;50.118;9.900;2023-04-06T01:29:55;13.68;;;5.97;;
17365;SDS011;8800;50.118;9.900;2023-04-06T01:32:22;12.02;;;6.07;;
17365;SDS011;8800;50.118;9.900;2023-04-06T01:34:49;15.07;;;6.38;;
17365;SDS011;8800;50.118;9.900;2023-04-06T01:37:15;13.32;;;6.43;;
17365;SDS011;8800;50.118;9.900;2023-04-06T01:39:44;12.95;;;5.95;;
17365;SDS011;8800;50.118;9.900;2023-04-06T01:42:11;12.30;;;6.10;;
17365;SDS011;8800;50.118;9.900;2023-04-06T01:44:37;14.88;;;6.20;;
17365;SDS011;8800;50.118;9.900;2023-04-06T01:47:04;12.52;;;6.10;;
17365;SDS011;8800;50.118;9.900;2023-04-06T01:49:31;10.57;;;5.82;;
17365;SDS011;8800;50.118;9.900;2023-04-06T01:51:57;11.93;;;6.28;;
17365;SDS011;8800;50.118;9.900;2023-04-06T01:54:23;11.55;;;6.18;;
17365;SDS011;8800;50.118;9.900;2023-04-06T01:56:51;12.18;;;5.90;;
17365;SDS011;8800;50.118;9.900;2023-04-06T01:59:18;13.02;;;6.22;;
17365;SDS011;8800;50.118;9.900;2023-04-06T02:01:44;16.15;;;6.43;;
17365;SDS011;8800;50.118;9.900;2023-04-06T02:04:11;14.15;;;6.07;;
17365;SDS011;8800;50.118;9.900;2023-04-06T02:06:39;10.57;;;6.35;;
17365;SDS011;8800;50.118;9.900;2023-04-06T02:09:05;12.63;;;6.47;;
17365;SDS011;8800;50.118;9.900;2023-04-06T02:11:32;11.05;;;6.63;;
17365;SDS011;8800;50.118;9.900;2023-04-06T02:13:59;11.98;;;6.05;;
17365;SDS011;8800;50.118;9.900;2023-04-06T02:16:26;12.35;;;6.13;;
17365;SDS011;8800;50.118;9.900;2023-04-06T02:18:53;13.25;;;6.32;;
17365;SDS011;8800;50.118;9.900;2023-04-06T02:21:19;13.88;;;6.30;;
17365;SDS011;8800;50.118;9.900;2023-04-06T02:23:45;9.35;;;5.57;;
17365;SDS011;8800;50.118;9.900;2023-04-06T02:26:12;16.88;;;6.40;;
17365;SDS011;8800;50.118;9.900;2023-04-06T02:28:38;13.48;;;6.47;;
17365;SDS011;8800;50.118;9.900;2023-04-06T02:31:07;11.48;;;6.05;;
17365;SDS011;8800;50.118;9.900;2023-04-06T02:33:33;11.63;;;6.07;;
17365;SDS011;8800;50.118;9.900;2023-04-06T02:35:59;14.80;;;6.40;;
17365;SDS011;8800;50.118;9.900;2023-04-06T02:38:26;10.45;;;6.07;;
17365;SDS011;8800;50.118;9.900;2023-04-06T02:40:52;12.05;;;5.68;;
17365;SDS011;8800;50.118;9.900;2023-04-06T02:43:19;10.23;;;5.93;;
17365;SDS011;8800;50.118;9.900;2023-04-06T02:45:45;13.93;;;5.90;;
17365;SDS011;8800;50.118;9.900;2023-04-06T02:48:13;11.57;;;6.28;;
17365;SDS011;8800;50.118;9.900;2023-04-06T02:50:40;11.32;;;6.15;;
17365;SDS011;8800;50.118;9.900;2023-04-06T02:53:06;13.45;;;6.28;;
17365;SDS011;8800;50.118;9.900;2023-04-06T02:55:33;11.85;;;6.20;;
17365;SDS011;8800;50.118;9.900;2023-04-06T02:57:59;15.55;;;5.80;;
17365;SDS011;8800;50.118;9.900;2023-04-06T03:00:26;10.18;;;5.88;;
17365;SDS011;8800;50.118;9.900;2023-04-06T03:02:52;11.00;;;5.72;;
17365;SDS011;8800;50.118;9.900;2023-04-06T03:05:20;28.63;;;14.82;;
17365;SDS011;8800;50.118;9.900;2023-04-06T03:07:46;21.75;;;10.07;;
17365;SDS011;8800;50.118;9.900;2023-04-06T03:10:13;33.30;;;15.07;;
17365;SDS011;8800;50.118;9.900;2023-04-06T03:12:39;20.88;;;10.90;;
17365;SDS011;8800;50.118;9.900;2023-04-06T03:15:07;16.30;;;7.78;;
17365;SDS011;8800;50.118;9.900;2023-04-06T03:17:33;14.43;;;6.18;;
17365;SDS011;8800;50.118;9.900;2023-04-06T03:20:00;12.40;;;6.18;;
17365;SDS011;8800;50.118;9.900;2023-04-06T03:22:28;12.60;;;6.32;;
17365;SDS011;8800;50.118;9.900;2023-04-06T03:24:54;14.50;;;6.07;;
17365;SDS011;8800;50.118;9.900;2023-04-06T03:27:21;10.80;;;6.03;;
17365;SDS011;8800;50.118;9.900;2023-04-06T03:29:47;13.13;;;5.95;;
17365;SDS011;8800;50.118;9.900;2023-04-06T03:32:14;12.65;;;5.72;;
17365;SDS011;8800;50.118;9.900;2023-04-06T03:34:40;11.85;;;6.05;;
17365;SDS011;8800;50.118;9.900;2023-04-06T03:37:07;11.35;;;5.63;;
17365;SDS011;8800;50.118;9.900;2023-04-06T03:39:34;11.93;;;5.85;;
17365;SDS011;8800;50.118;9.900;2023-04-06T03:42:01;12.23;;;6.25;;
17365;SDS011;8800;50.118;9.900;2023-04-06T03:44:27;11.52;;;5.85;;
17365;SDS011;8800;50.118;9.900;2023-04-06T03:46:54;12.80;;;6.00;;
17365;SDS011;8800;50.118;9.900;2023-04-06T03:49:20;11.80;;;6.00;;
17365;SDS011;8800;50.118;9.900;2023-04-06T03:51:47;11.52;;;5.55;;
17365;SDS011;8800;50.118;9.900;2023-04-06T03:54:13;11.15;;;5.80;;
17365;SDS011;8800;50.118;9.900;2023-04-06T03:56:41;11.35;;;5.97;;
17365;SDS011;8800;50.118;9.900;2023-04-06T03:59:07;11.27;;;5.97;;
17365;SDS011;8800;50.118;9.900;2023-04-06T04:01:34;13.73;;;6.88;;
17365;SDS011;8800;50.118;9.900;2023-04-06T04:04:00;12.20;;;6.85;;
17365;SDS011;8800;50.118;9.900;2023-04-06T04:06:26;12.32;;;6.03;;
17365;SDS011;8800;50.118;9.900;2023-04-06T04:08:53;11.82;;;6.00;;
17365;SDS011;8800;50.118;9.900;2023-04-06T04:11:19;11.90;;;5.90;;
17365;SDS011;8800;50.118;9.900;2023-04-06T04:13:47;13.23;;;5.75;;
17365;SDS011;8800;50.118;9.900;2023-04-06T04:16:14;13.05;;;6.43;;
17365;SDS011;8800;50.118;9.900;2023-04-06T04:18:40;13.57;;;6.25;;
17365;SDS011;8800;50.118;9.900;2023-04-06T04:21:08;11.38;;;5.88;;
17365;SDS011;8800;50.118;9.900;2023-04-06T04:23:35;14.07;;;6.30;;
17365;SDS011;8800;50.118;9.900;2023-04-06T04:26:01;12.63;;;6.05;;
17365;SDS011;8800;50.118;9.900;2023-04-06T04:28:27;13.13;;;6.80;;
17365;SDS011;8800;50.118;9.900;2023-04-06T04:30:55;11.77;;;6.20;;
17365;SDS011;8800;50.118;9.900;2023-04-06T04:33:22;13.23;;;6.13;;
17365;SDS011;8800;50.118;9.900;2023-04-06T04:35:49;12.05;;;5.97;;
17365;SDS011;8800;50.118;9.900;2023-04-06T04:38:15;13.82;;;5.88;;
17365;SDS011;8800;50.118;9.900;2023-04-06T04:40:42;11.73;;;5.57;;
17365;SDS011;8800;50.118;9.900;2023-04-06T04:43:09;10.63;;;5.97;;
17365;SDS011;8800;50.118;9.900;2023-04-06T04:45:35;11.88;;;6.18;;
17365;SDS011;8800;50.118;9.900;2023-04-06T04:48:03;15.02;;;6.15;;
17365;SDS011;8800;50.118;9.900;2023-04-06T04:50:30;14.85;;;5.97;;
17365;SDS011;8800;50.118;9.900;2023-04-06T04:52:57;11.88;;;6.35;;
17365;SDS011;8800;50.118;9.900;2023-04-06T04:55:23;11.32;;;6.88;;
17365;SDS011;8800;50.118;9.900;2023-04-06T04:57:50;13.35;;;6.60;;
17365;SDS011;8800;50.118;9.900;2023-04-06T05:00:16;13.48;;;6.65;;
17365;SDS011;8800;50.118;9.900;2023-04-06T05:02:43;20.60;;;7.43;;
17365;SDS011;8800;50.118;9.900;2023-04-06T05:05:11;17.95;;;8.43;;
17365;SDS011;8800;50.118;9.900;2023-04-06T05:07:38;17.55;;;7.55;;
17365;SDS011;8800;50.118;9.900;2023-04-06T05:10:05;13.07;;;6.90;;
17365;SDS011;8800;50.118;9.900;2023-04-06T05:12:31;15.20;;;6.90;;
17365;SDS011;8800;50.118;9.900;2023-04-06T05:14:58;11.50;;;6.20;;
17365;SDS011;8800;50.118;9.900;2023-04-06T05:17:25;13.98;;;6.70;;
17365;SDS011;8800;50.118;9.900;2023-04-06T05:19:51;14.02;;;6.82;;
17365;SDS011;8800;50.118;9.900;2023-04-06T05:22:19;13.93;;;6.70;;
17365;SDS011;8800;50.118;9.900;2023-04-06T05:24:46;13.95;;;6.65;;
17365;SDS011;8800;50.118;9.900;2023-04-06T05:27:12;18.00;;;7.85;;
17365;SDS011;8800;50.118;9.900;2023-04-06T05:29:39;16.55;;;7.82;;
17365;SDS011;8800;50.118;9.900;2023-04-06T05:32:06;13.82;;;7.80;;
17365;SDS011;8800;50.118;9.900;2023-04-06T05:34:32;17.95;;;8.57;;
17365;SDS011;8800;50.118;9.900;2023-04-06T05:36:59;20.42;;;9.13;;
17365;SDS011;8800;50.118;9.900;2023-04-06T05:39:27;19.40;;;9.07;;
17365;SDS011;8800;50.118;9.900;2023-04-06T05:41:53;17.77;;;8.43;;
17365;SDS011;8800;50.118;9.900;2023-04-06T05:44:20;18.95;;;8.60;;
17365;SDS011;8800;50.118;9.900;2023-04-06T05:46:46;16.25;;;8.20;;
17365;SDS011;8800;50.118;9.900;2023-04-06T05:49:14;17.60;;;8.30;;
17365;SDS011;8800;50.118;9.900;2023-04-06T05:51:41;12.77;;;7.10;;
17365;SDS011;8800;50.118;9.900;2023-04-06T05:54:07;15.45;;;7.00;;
17365;SDS011;8800;50.118;9.900;2023-04-06T05:56:35;18.17;;;7.07;;
17365;SDS011;8800;50.118;9.900;2023-04-06T05:59:01;19.75;;;6.97;;
17365;SDS011;8800;50.118;9.900;2023-04-06T06:01:28;12.82;;;6.82;;
17365;SDS011;8800;50.118;9.900;2023-04-06T06:03:54;14.05;;;6.95;;
17365;SDS011;8800;50.118;9.900;2023-04-06T06:06:21;16.90;;;8.10;;
17365;SDS011;8800;50.118;9.900;2023-04-06T06:08:47;17.92;;;8.23;;
17365;SDS011;8800;50.118;9.900;2023-04-06T06:11:14;14.27;;;7.35;;
17365;SDS011;8800;50.118;9.900;2023-04-06T06:13:42;13.63;;;6.78;;
17365;SDS011;8800;50.118;9.900;2023-04-06T06:16:08;16.33;;;7.15;;
17365;SDS011;8800;50.118;9.900;2023-04-06T06:18:34;12.95;;;6.95;;
17365;SDS011;8800;50.118;9.900;2023-04-06T06:21:01;15.13;;;6.70;;
17365;SDS011;8800;50.118;9.900;2023-04-06T06:23:29;17.23;;;6.47;;
17365;SDS011;8800;50.118;9.900;2023-04-06T06:25:55;13.02;;;6.43;;
17365;SDS011;8800;50.118;9.900;2023-04-06T06:28:23;17.27;;;6.20;;
17365;SDS011;8800;50.118;9.900;2023-04-06T06:30:51;12.07;;;5.85;;
17365;SDS011;8800;50.118;9.900;2023-04-06T06:33:18;14.05;;;6.78;;
17365;SDS011;8800;50.118;9.900;2023-04-06T06:35:44;12.27;;;6.63;;
17365;SDS011;8800;50.118;9.900;2023-04-06T06:38:11;13.55;;;6.43;;
17365;SDS011;8800;50.118;9.900;2023-04-06T06:40:37;14.32;;;6.53;;
17365;SDS011;8800;50.118;9.900;2023-04-06T06:43:04;11.60;;;6.50;;
17365;SDS011;8800;50.118;9.900;2023-04-06T06:45:30;13.25;;;5.53;;
17365;SDS011;8800;50.118;9.900;2023-04-06T06:47:58;15.57;;;6.05;;
17365;SDS011;8800;50.118;9.900;2023-04-06T06:50:25;13.88;;;6.28;;
17365;SDS011;8800;50.118;9.900;2023-04-06T06:52:51;9.60;;;5.75;;
17365;SDS011;8800;50.118;9.900;2023-04-06T06:55:18;11.55;;;6.50;;
17365;SDS011;8800;50.118;9.900;2023-04-06T06:57:45;11.30;;;5.28;;
17365;SDS011;8800;50.118;9.900;2023-04-06T07:00:14;15.98;;;5.85;;
17365;SDS011;8800;50.118;9.900;2023-04-06T07:02:40;12.73;;;5.82;;
17365;SDS011;8800;50.118;9.900;2023-04-06T07:05:08;10.23;;;5.95;;
17365;SDS011;8800;50.118;9.900;2023-04-06T07:07:35;12.95;;;6.32;;
17365;SDS011;8800;50.118;9.900;2023-04-06T07:10:01;9.73;;;5.82;;
17365;SDS011;8800;50.118;9.900;2023-04-06T07:12:28;9.82;;;5.82;;
17365;SDS011;8800;50.118;9.900;2023-04-06T07:14:55;12.50;;;6.10;;
17365;SDS011;8800;50.118;9.900;2023-04-06T07:17:21;11.65;;;6.10;;
17365;SDS011;8800;50.118;9.900;2023-04-06T07:19:48;11.98;;;6.22;;
17365;SDS011;8800;50.118;9.900;2023-04-06T07:22:18;10.30;;;6.10;;
17365;SDS011;8800;50.118;9.900;2023-04-06T07:24:47;11.45;;;5.70;;
17365;SDS011;8800;50.118;9.900;2023-04-06T07:27:14;11.32;;;6.30;;
17365;SDS011;8800;50.118;9.900;2023-04-06T07:29:41;9.90;;;5.75;;
17365;SDS011;8800;50.118;9.900;2023-04-06T07:32:08;10.98;;;5.70;;
17365;SDS011;8800;50.118;9.900;2023-04-06T07:34:34;12.82;;;6.40;;
17365;SDS011;8800;50.118;9.900;2023-04-06T07:37:01;11.43;;;5.68;;
17365;SDS011;8800;50.118;9.900;2023-04-06T07:39:29;11.95;;;5.53;;
17365;SDS011;8800;50.118;9.900;2023-04-06T07:41:55;11.02;;;6.20;;
17365;SDS011;8800;50.118;9.900;2023-04-06T07:44:22;10.02;;;5.68;;
17365;SDS011;8800;50.118;9.900;2023-04-06T07:46:48;9.90;;;5.03;;
17365;SDS011;8800;50.118;9.900;2023-04-06T07:49:15;8.57;;;5.50;;
17365;SDS011;8800;50.118;9.900;2023-04-06T07:51:41;9.98;;;5.75;;
17365;SDS011;8800;50.118;9.900;2023-04-06T07:54:08;8.85;;;5.60;;
17365;SDS011;8800;50.118;9.900;2023-04-06T07:56:36;10.70;;;5.50;;
17365;SDS011;8800;50.118;9.900;2023-04-06T07:59:02;10.88;;;5.10;;
17365;SDS011;8800;50.118;9.900;2023-04-06T08:01:29;8.85;;;4.80;;
17365;SDS011;8800;50.118;9.900;2023-04-06T08:03:56;8.38;;;4.70;;
17365;SDS011;8800;50.118;9.900;2023-04-06T08:06:23;9.00;;;4.70;;
17365;SDS011;8800;50.118;9.900;2023-04-06T08:08:50;10.75;;;4.68;;
17365;SDS011;8800;50.118;9.900;2023-04-06T08:11:17;11.30;;;5.05;;
17365;SDS011;8800;50.118;9.900;2023-04-06T08:13:45;8.55;;;4.60;;
17365;SDS011;8800;50.118;9.900;2023-04-06T08:16:11;10.02;;;4.50;;
17365;SDS011;8800;50.118;9.900;2023-04-06T08:18:38;8.20;;;4.72;;
17365;SDS011;8800;50.118;9.900;2023-04-06T08:21:05;10.95;;;5.00;;
17365;SDS011;8800;50.118;9.900;2023-04-06T08:23:31;8.35;;;4.93;;
17365;SDS011;8800;50.118;9.900;2023-04-06T08:25:58;9.55;;;5.03;;
17365;SDS011;8800;50.118;9.900;2023-04-06T08:28:24;9.65;;;5.07;;
17365;SDS011;8800;50.118;9.900;2023-04-06T08:30:52;10.23;;;4.75;;
17365;SDS011;8800;50.118;9.900;2023-04-06T08:33:19;10.00;;;4.82;;
17365;SDS011;8800;50.118;9.900;2023-04-06T08:35:46;8.35;;;4.80;;
17365;SDS011;8800;50.118;9.900;2023-04-06T08:38:12;11.43;;;5.38;;
17365;SDS011;8800;50.118;9.900;2023-04-06T08:40:39;12.10;;;4.95;;
17365;SDS011;8800;50.118;9.900;2023-04-06T08:43:06;9.20;;;5.32;;
17365;SDS011;8800;50.118;9.900;2023-04-06T08:45:38;8.15;;;5.38;;
17365;SDS011;8800;50.118;9.900;2023-04-06T08:48:07;11.13;;;4.93;;
17365;SDS011;8800;50.118;9.900;2023-04-06T08:50:35;12.63;;;5.38;;
17365;SDS011;8800;50.118;9.900;2023-04-06T08:53:01;11.00;;;5.45;;
17365;SDS011;8800;50.118;9.900;2023-04-06T08:55:28;9.63;;;4.90;;
17365;SDS011;8800;50.118;9.900;2023-04-06T08:57:55;9.65;;;5.30;;
17365;SDS011;8800;50.118;9.900;2023-04-06T09:00:22;9.25;;;5.28;;
17365;SDS011;8800;50.118;9.900;2023-04-06T09:02:49;8.50;;;5.03;;
17365;SDS011;8800;50.118;9.900;2023-04-06T09:05:18;9.82;;;5.75;;
17365;SDS011;8800;50.118;9.900;2023-04-06T09:07:45;8.40;;;5.25;;
17365;SDS011;8800;50.118;9.900;2023-04-06T09:10:13;9.73;;;5.00;;
17365;SDS011;8800;50.118;9.900;2023-04-06T09:12:40;11.68;;;6.10;;
17365;SDS011;8800;50.118;9.900;2023-04-06T09:15:17;8.65;;;4.82;;
17365;SDS011;8800;50.118;9.900;2023-04-06T09:17:43;11.63;;;5.72;;
17365;SDS011;8800;50.118;9.900;2023-04-06T09:20:11;9.95;;;5.40;;
17365;SDS011;8800;50.118;9.900;2023-04-06T09:22:39;10.45;;;5.70;;
17365;SDS011;8800;50.118;9.900;2023-04-06T09:25:09;9.75;;;5.72;;
17365;SDS011;8800;50.118;9.900;2023-04-06T09:27:37;9.45;;;5.10;;
17365;SDS011;8800;50.118;9.900;2023-04-06T09:30:07;11.10;;;5.90;;
17365;SDS011;8800;50.118;9.900;2023-04-06T09:32:44;12.43;;;6.00;;
17365;SDS011;8800;50.118;9.900;2023-04-06T09:35:11;9.80;;;5.25;;
17365;SDS011;8800;50.118;9.900;2023-04-06T09:37:39;9.27;;;5.65;;
17365;SDS011;8800;50.118;9.900;2023-04-06T09:40:06;9.13;;;5.57;;
17365;SDS011;8800;50.118;9.900;2023-04-06T09:42:32;11.80;;;6.00;;
17365;SDS011;8800;50.118;9.900;2023-04-06T09:44:59;10.65;;;6.63;;
17365;SDS011;8800;50.118;9.900;2023-04-06T09:47:26;8.98;;;5.80;;
17365;SDS011;8800;50.118;9.900;2023-04-06T09:49:55;12.10;;;6.13;;
17365;SDS011;8800;50.118;9.900;2023-04-06T09:52:26;11.15;;;6.28;;
17365;SDS011;8800;50.118;9.900;2023-04-06T09:54:55;10.10;;;6.00;;
17365;SDS011;8800;50.118;9.900;2023-04-06T09:57:23;11.65;;;6.20;;
17365;SDS011;8800;50.118;9.900;2023-04-06T09:59:53;13.07;;;6.75;;
17365;SDS011;8800;50.118;9.900;2023-04-06T10:02:24;11.82;;;6.63;;
17365;SDS011;8800;50.118;9.900;2023-04-06T10:04:56;13.07;;;6.53;;
17365;SDS011;8800;50.118;9.900;2023-04-06T10:07:25;13.05;;;6.93;;
17365;SDS011;8800;50.118;9.900;2023-04-06T10:09:54;13.48;;;6.85;;
17365;SDS011;8800;50.118;9.900;2023-04-06T10:12:21;11.07;;;6.53;;
17365;SDS011;8800;50.118;9.900;2023-04-06T10:14:48;10.50;;;6.53;;
17365;SDS011;8800;50.118;9.900;2023-04-06T10:17:15;12.43;;;6.50;;
17365;SDS011;8800;50.118;9.900;2023-04-06T10:19:44;12.80;;;6.93;;
17365;SDS011;8800;50.118;9.900;2023-04-06T10:22:15;10.98;;;6.45;;
17365;SDS011;8800;50.118;9.900;2023-04-06T10:24:44;13.45;;;6.93;;
17365;SDS011;8800;50.118;9.900;2023-04-06T10:27:12;11.88;;;7.03;;
17365;SDS011;8800;50.118;9.900;2023-04-06T10:29:43;11.95;;;7.07;;
17365;SDS011;8800;50.118;9.900;2023-04-06T10:32:10;14.98;;;7.10;;
17365;SDS011;8800;50.118;9.900;2023-04-06T10:34:36;13.07;;;7.07;;
17365;SDS011;8800;50.118;9.900;2023-04-06T10:37:10;13.25;;;6.88;;
17365;SDS011;8800;50.118;9.900;2023-04-06T10:39:45;14.82;;;7.60;;
17365;SDS011;8800;50.118;9.900;2023-04-06T10:42:13;14.75;;;7.40;;
17365;SDS011;8800;50.118;9.900;2023-04-06T10:44:42;14.27;;;6.95;;
17365;SDS011;8800;50.118;9.900;2023-04-06T10:47:15;15.90;;;7.70;;
17365;SDS011;8800;50.118;9.900;2023-04-06T10:49:41;13.80;;;7.53;;
17365;SDS011;8800;50.118;9.900;2023-04-06T10:52:08;12.95;;;7.32;;
17365;SDS011;8800;50.118;9.900;2023-04-06T10:54:34;14.40;;;7.13;;
17365;SDS011;8800;50.118;9.900;2023-04-06T10:57:07;15.23;;;7.38;;
17365;SDS011;8800;50.118;9.900;2023-04-06T10:59:35;14.15;;;7.47;;
17365;SDS011;8800;50.118;9.900;2023-04-06T11:02:01;12.35;;;7.22;;
17365;SDS011;8800;50.118;9.900;2023-04-06T11:04:28;12.73;;;7.28;;
17365;SDS011;8800;50.118;9.900;2023-04-06T11:06:55;12.27;;;7.18;;
17365;SDS011;8800;50.118;9.900;2023-04-06T11:09:23;15.60;;;6.63;;
17365;SDS011;8800;50.118;9.900;2023-04-06T11:11:51;14.75;;;7.13;;
17365;SDS011;8800;50.118;9.900;2023-04-06T11:14:17;13.23;;;6.35;;
17365;SDS011;8800;50.118;9.900;2023-04-06T11:16:47;12.38;;;7.15;;
17365;SDS011;8800;50.118;9.900;2023-04-06T11:19:15;15.20;;;7.50;;
17365;SDS011;8800;50.118;9.900;2023-04-06T11:21:42;15.27;;;7.88;;
17365;SDS011;8800;50.118;9.900;2023-04-06T11:24:12;14.35;;;7.88;;
17365;SDS011;8800;50.118;9.900;2023-04-06T11:26:39;12.82;;;7.50;;
17365;SDS011;8800;50.118;9.900;2023-04-06T11:29:06;29.77;;;8.10;;
17365;SDS011;8800;50.118;9.900;2023-04-06T11:31:37;14.90;;;7.50;;
17365;SDS011;8800;50.118;9.900;2023-04-06T11:34:09;13.32;;;7.28;;
17365;SDS011;8800;50.118;9.900;2023-04-06T11:36:39;13.43;;;7.50;;
17365;SDS011;8800;50.118;9.900;2023-04-06T11:39:06;14.52;;;7.18;;
17365;SDS011;8800;50.118;9.900;2023-04-06T11:41:33;13.60;;;6.65;;
17365;SDS011;8800;50.118;9.900;2023-04-06T11:44:01;14.00;;;6.85;;
17365;SDS011;8800;50.118;9.900;2023-04-06T11:46:31;15.32;;;6.93;;
17365;SDS011;8800;50.118;9.900;2023-04-06T11:49:02;14.98;;;7.28;;
17365;SDS011;8800;50.118;9.900;2023-04-06T11:51:34;13.80;;;7.18;;
17365;SDS011;8800;50.118;9.900;2023-04-06T11:54:01;13.73;;;7.18;;
17365;SDS011;8800;50.118;9.900;2023-04-06T11:56:28;13.85;;;7.90;;
17365;SDS011;8800;50.118;9.900;2023-04-06T11:58:55;12.18;;;7.28;;
17365;SDS011;8800;50.118;9.900;2023-04-06T12:01:22;14.05;;;7.10;;
17365;SDS011;8800;50.118;9.900;2023-04-06T12:03:49;13.32;;;7.45;;
17365;SDS011;8800;50.118;9.900;2023-04-06T12:06:16;12.57;;;6.50;;
17365;SDS011;8800;50.118;9.900;2023-04-06T12:08:44;10.95;;;6.40;;
17365;SDS011;8800;50.118;9.900;2023-04-06T12:11:10;12.40;;;6.80;;
17365;SDS011;8800;50.118;9.900;2023-04-06T12:13:37;13.48;;;6.90;;
17365;SDS011;8800;50.118;9.900;2023-04-06T12:16:04;12.18;;;6.38;;
17365;SDS011;8800;50.118;9.900;2023-04-06T12:18:31;10.63;;;6.72;;
17365;SDS011;8800;50.118;9.900;2023-04-06T12:20:58;12.43;;;7.38;;
17365;SDS011;8800;50.118;9.900;2023-04-06T12:23:25;11.98;;;6.47;;
17365;SDS011;8800;50.118;9.900;2023-04-06T12:25:53;10.63;;;6.18;;
17365;SDS011;8800;50.118;9.900;2023-04-06T12:28:19;12.25;;;7.30;;
17365;SDS011;8800;50.118;9.900;2023-04-06T12:30:48;11.20;;;6.18;;
17365;SDS011;8800;50.118;9.900;2023-04-06T12:33:14;13.00;;;6.95;;
17365;SDS011;8800;50.118;9.900;2023-04-06T12:35:41;11.77;;;5.88;;
17365;SDS011;8800;50.118;9.900;2023-04-06T12:38:07;10.90;;;6.40;;
17365;SDS011;8800;50.118;9.900;2023-04-06T12:40:36;12.82;;;5.90;;
17365;SDS011;8800;50.118;9.900;2023-04-06T12:43:06;10.27;;;5.88;;
17365;SDS011;8800;50.118;9.900;2023-04-06T12:45:40;10.15;;;6.00;;
17365;SDS011;8800;50.118;9.900;2023-04-06T12:48:07;8.95;;;5.95;;
17365;SDS011;8800;50.118;9.900;2023-04-06T12:50:33;10.02;;;6.80;;
17365;SDS011;8800;50.118;9.900;2023-04-06T12:53:00;9.82;;;6.10;;
17365;SDS011;8800;50.118;9.900;2023-04-06T12:55:29;13.98;;;6.90;;
17365;SDS011;8800;50.118;9.900;2023-04-06T12:57:56;10.63;;;6.32;;
17365;SDS011;8800;50.118;9.900;2023-04-06T13:00:24;10.70;;;6.20;;
17365;SDS011;8800;50.118;9.900;2023-04-06T13:02:51;9.65;;;6.28;;
17365;SDS011;8800;50.118;9.900;2023-04-06T13:05:17;9.85;;;6.10;;
17365;SDS011;8800;50.118;9.900;2023-04-06T13:07:44;10.60;;;6.30;;
17365;SDS011;8800;50.118;9.900;2023-04-06T13:10:12;9.13;;;5.88;;
17365;SDS011;8800;50.118;9.900;2023-04-06T13:12:38;10.07;;;6.07;;
17365;SDS011;8800;50.118;9.900;2023-04-06T13:15:05;10.55;;;6.68;;
17365;SDS011;8800;50.118;9.900;2023-04-06T13:17:33;11.93;;;6.57;;
17365;SDS011;8800;50.118;9.900;2023-04-06T13:19:59;11.95;;;6.00;;
17365;SDS011;8800;50.118;9.900;2023-04-06T13:22:26;10.15;;;5.82;;
17365;SDS011;8800;50.118;9.900;2023-04-06T13:24:52;10.60;;;6.45;;
17365;SDS011;8800;50.118;9.900;2023-04-06T13:27:19;8.48;;;6.15;;
17365;SDS011;8800;50.118;9.900;2023-04-06T13:29:45;10.80;;;6.13;;
17365;SDS011;8800;50.118;9.900;2023-04-06T13:32:12;9.55;;;5.93;;
17365;SDS011;8800;50.118;9.900;2023-04-06T13:34:40;9.85;;;6.20;;
17365;SDS011;8800;50.118;9.900;2023-04-06T13:37:09;12.18;;;5.97;;
17365;SDS011;8800;50.118;9.900;2023-04-06T13:39:36;7.82;;;5.38;;
17365;SDS011;8800;50.118;9.900;2023-04-06T13:42:03;8.20;;;5.30;;
17365;SDS011;8800;50.118;9.900;2023-04-06T13:44:29;9.23;;;5.78;;
17365;SDS011;8800;50.118;9.900;2023-04-06T13:46:56;11.63;;;5.40;;
17365;SDS011;8800;50.118;9.900;2023-04-06T13:49:23;8.68;;;5.78;;
17365;SDS011;8800;50.118;9.900;2023-04-06T13:51:51;8.13;;;5.32;;
17365;SDS011;8800;50.118;9.900;2023-04-06T13:54:17;9.63;;;5.50;;
17365;SDS011;8800;50.118;9.900;2023-04-06T13:56:43;8.85;;;5.47;;
17365;SDS011;8800;50.118;9.900;2023-04-06T13:59:10;9.48;;;5.63;;
17365;SDS011;8800;50.118;9.900;2023-04-06T14:01:36;9.23;;;6.00;;
17365;SDS011;8800;50.118;9.900;2023-04-06T14:04:03;7.07;;;5.80;;
17365;SDS011;8800;50.118;9.900;2023-04-06T14:06:29;8.90;;;5.80;;
17365;SDS011;8800;50.118;9.900;2023-04-06T14:08:57;8.38;;;5.43;;
17365;SDS011;8800;50.118;9.900;2023-04-06T14:11:23;10.27;;;6.13;;
17365;SDS011;8800;50.118;9.900;2023-04-06T14:13:50;10.50;;;6.40;;
17365;SDS011;8800;50.118;9.900;2023-04-06T14:16:16;7.65;;;5.45;;
17365;SDS011;8800;50.118;9.900;2023-04-06T14:18:44;6.82;;;5.25;;
17365;SDS011;8800;50.118;9.900;2023-04-06T14:21:11;7.97;;;5.53;;
17365;SDS011;8800;50.118;9.900;2023-04-06T14:23:37;8.23;;;5.20;;
17365;SDS011;8800;50.118;9.900;2023-04-06T14:26:06;7.53;;;5.72;;
17365;SDS011;8800;50.118;9.900;2023-04-06T14:28:33;6.90;;;5.32;;
17365;SDS011;8800;50.118;9.900;2023-04-06T14:31:00;7.30;;;5.90;;
17365;SDS011;8800;50.118;9.900;2023-04-06T14:33:28;7.72;;;4.95;;
17365;SDS011;8800;50.118;9.900;2023-04-06T14:35:55;6.47;;;4.68;;
17365;SDS011;8800;50.118;9.900;2023-04-06T14:38:21;5.97;;;4.43;;
17365;SDS011;8800;50.118;9.900;2023-04-06T14:40:48;10.30;;;5.60;;
17365;SDS011;8800;50.118;9.900;2023-04-06T14:43:16;7.95;;;5.78;;
17365;SDS011;8800;50.118;9.900;2023-04-06T14:45:43;7.95;;;5.60;;
17365;SDS011;8800;50.118;9.900;2023-04-06T14:48:09;9.95;;;6.18;;
17365;SDS011;8800;50.118;9.900;2023-04-06T14:50:37;9.13;;;6.55;;